createdAt,value
2022-11-29T00:02:05.201Z,95294.88
2022-11-29T00:04:35.192Z,95296.72
2022-11-29T00:07:04.694Z,95301.00
2022-11-29T00:09:34.217Z,95294.88
2022-11-29T00:12:15.679Z,95295.69
2022-11-29T00:14:53.492Z,95306.91
2022-11-29T00:17:23.084Z,95295.69
2022-11-29T00:19:52.562Z,95295.94
2022-11-29T00:22:23.609Z,95298.00
2022-11-29T00:24:53.504Z,95295.59
2022-11-29T00:27:22.940Z,95289.44
2022-11-29T00:29:53.773Z,95287.59
2022-11-29T00:32:23.521Z,95288.63
2022-11-29T00:34:59.498Z,95293.97
2022-11-29T00:37:29.213Z,95289.69
2022-11-29T00:39:59.122Z,95290.50
2022-11-29T00:42:28.716Z,95286.22
2022-11-29T00:44:59.666Z,95287.81
2022-11-29T00:47:29.375Z,95289.94
2022-11-29T00:49:58.931Z,95288.09
2022-11-29T00:52:28.596Z,95286.22
2022-11-29T00:54:58.007Z,95289.44
2022-11-29T00:57:27.505Z,95286.78
2022-11-29T00:59:59.408Z,95289.44
2022-11-29T01:02:28.901Z,95291.88
2022-11-29T01:04:58.380Z,95286.53
2022-11-29T01:07:27.838Z,95285.50
2022-11-29T01:09:57.377Z,95291.63
2022-11-29T01:12:26.885Z,95292.44
2022-11-29T01:14:59.001Z,95283.66
2022-11-29T01:17:28.423Z,95282.84
2022-11-29T01:19:57.890Z,95280.19
2022-11-29T01:22:27.457Z,95287.13
2022-11-29T01:24:57.039Z,95284.47
2022-11-29T01:27:26.543Z,95289.56
2022-11-29T01:29:55.961Z,95280.75
2022-11-29T01:32:27.394Z,95286.66
2022-11-29T01:34:56.840Z,95287.22
2022-11-29T01:37:26.458Z,95289.66
2022-11-29T01:39:55.899Z,95288.63
2022-11-29T01:42:25.461Z,95292.09
2022-11-29T01:45:21.923Z,95292.09
2022-11-29T01:47:57.762Z,95284.09
2022-11-29T01:50:27.344Z,95286.75
2022-11-29T01:52:56.809Z,95284.91
2022-11-29T01:55:27.039Z,95285.72
2022-11-29T01:57:56.876Z,95289.19
2022-11-29T02:00:26.769Z,95291.63
2022-11-29T02:03:06.127Z,95293.25
2022-11-29T02:05:36.100Z,95287.91
2022-11-29T02:08:06.896Z,95283.63
2022-11-29T02:10:57.919Z,95282.59
2022-11-29T02:13:40.180Z,95289.75
2022-11-29T02:16:25.818Z,95285.25
2022-11-29T02:19:18.356Z,95281.53
2022-11-29T02:21:52.769Z,95278.63
2022-11-29T02:25:00.627Z,95281.88
2022-11-29T02:28:31.219Z,95278.41
2022-11-29T02:31:56.755Z,95277.81
2022-11-29T02:35:00.423Z,95278.88
2022-11-29T02:37:59.834Z,95277.03
2022-11-29T02:41:05.676Z,95277.81
2022-11-29T02:44:21.172Z,95275.75
2022-11-29T02:47:09.729Z,95286.41
2022-11-29T02:50:20.641Z,95274.13
2022-11-29T02:53:03.816Z,95274.34
2022-11-29T02:55:45.515Z,95277.81
2022-11-29T02:58:26.474Z,95280.25
2022-11-29T03:01:11.214Z,95272.25
2022-11-29T03:03:50.695Z,95273.53
2022-11-29T03:06:34.406Z,95280.25
2022-11-29T03:09:14.008Z,95284.78
2022-11-29T03:11:52.668Z,95281.06
2022-11-29T03:14:28.436Z,95282.13
2022-11-29T03:17:14.039Z,95285.59
2022-11-29T03:20:08.272Z,95286.41
2022-11-29T03:22:49.155Z,95286.41
2022-11-29T05:40:50.385Z,95323.97
2022-11-29T05:43:55.700Z,95325.84
2022-11-29T05:46:35.157Z,95329.31
2022-11-29T05:49:21.498Z,95325.84
2022-11-29T05:52:10.428Z,95318.66
2022-11-29T05:54:49.897Z,95323.97
2022-11-29T05:57:32.736Z,95331.75
2022-11-29T06:00:06.631Z,95336.25
2022-11-29T06:02:58.353Z,95338.91
2022-11-29T06:05:38.408Z,95331.75
2022-11-29T06:08:16.745Z,95336.84
2022-11-29T06:11:01.317Z,95333.13
2022-11-29T06:13:54.588Z,95330.69
2022-11-29T06:17:26.368Z,95328.03
2022-11-29T06:20:24.683Z,95334.97
2022-11-29T06:23:48.562Z,95330.69
2022-11-29T06:26:42.021Z,95345.88
2022-11-29T06:29:33.582Z,95347.50
2022-11-29T06:32:21.047Z,95348.31
2022-11-29T06:34:59.147Z,95338.69
2022-11-29T06:37:36.216Z,95347.25
2022-11-29T06:40:13.238Z,95347.25
2022-11-29T06:42:42.844Z,95349.09
2022-11-29T06:45:17.041Z,95352.59
2022-11-29T06:47:54.281Z,95351.53
2022-11-29T06:50:43.410Z,95353.41
2022-11-29T06:53:25.075Z,95354.22
2022-11-29T06:56:06.091Z,95356.06
2022-11-29T06:58:52.542Z,95353.16
2022-11-29T07:01:38.641Z,95355.25
2022-11-29T07:04:46.268Z,95362.19
2022-11-29T07:07:22.530Z,95362.19
2022-11-29T07:09:58.542Z,95362.78
2022-11-29T07:12:29.179Z,95365.44
2022-11-29T07:14:59.866Z,95376.91
2022-11-29T07:17:39.829Z,95373.66
2022-11-29T07:20:17.088Z,95362.78
2022-11-29T07:23:04.595Z,95373.44
2022-11-29T07:25:51.479Z,95371.34
2022-11-29T07:28:48.331Z,95369.50
2022-11-29T07:31:32.457Z,95373.78
2022-11-29T07:34:18.460Z,95372.16
2022-11-29T07:37:01.456Z,95373.78
2022-11-29T07:39:46.078Z,95378.88
2022-11-29T07:42:27.004Z,95375.41
2022-11-29T07:45:10.590Z,95384.22
2022-11-29T07:47:39.854Z,95381.53
2022-11-29T07:50:12.798Z,95377.81
2022-11-29T07:52:42.324Z,95381.31
2022-11-29T07:55:18.686Z,95389.06
2022-11-29T07:57:49.302Z,95385.81
2022-11-29T08:00:21.173Z,95377.25
2022-11-29T08:02:52.306Z,95380.72
2022-11-29T08:05:23.928Z,95385.00
2022-11-29T08:07:54.527Z,95391.16
2022-11-29T08:10:24.288Z,95377.81
2022-11-29T08:12:54.312Z,95386.63
2022-11-29T08:15:26.172Z,95395.44
2022-11-29T08:17:55.618Z,95394.94
2022-11-29T08:20:26.383Z,95396.56
2022-11-29T08:22:57.487Z,95403.50
2022-11-29T08:25:29.089Z,95392.63
2022-11-29T08:27:58.735Z,95402.22
2022-11-29T08:30:28.115Z,95407.34
2022-11-29T08:32:57.637Z,95406.84
2022-11-29T08:35:28.502Z,95396.19
2022-11-29T08:37:57.884Z,95405.81
2022-11-29T08:40:27.735Z,95401.28
2022-11-29T08:42:59.311Z,95412.53
2022-11-29T08:45:28.842Z,95408.81
2022-11-29T08:47:58.234Z,95405.91
2022-11-29T08:50:29.060Z,95410.22
2022-11-29T08:53:17.337Z,95406.25
2022-11-29T08:55:46.945Z,95408.69
2022-11-29T08:58:17.313Z,95404.97
2022-11-29T09:00:47.228Z,95407.41
2022-11-29T09:03:34.468Z,95409.03
2022-11-29T09:06:12.461Z,95409.25
2022-11-29T09:08:44.018Z,95414.59
2022-11-29T09:11:18.113Z,95416.47
2022-11-29T09:13:50.569Z,95418.06
2022-11-29T09:16:25.262Z,95419.47
2022-11-29T09:18:56.450Z,95434.41
2022-11-29T09:21:30.024Z,95419.78
2022-11-29T09:24:01.999Z,95425.44
2022-11-29T09:26:35.069Z,95428.09
2022-11-29T09:29:07.644Z,95433.53
2022-11-29T09:31:37.286Z,95429.59
2022-11-29T09:34:06.852Z,95428.31
2022-11-29T09:36:37.740Z,95430.50
2022-11-29T09:39:07.171Z,95430.84
2022-11-29T09:42:09.659Z,95430.38
2022-11-29T09:44:55.565Z,95434.66
2022-11-29T09:48:11.416Z,95429.38
2022-11-29T09:50:49.752Z,95433.19
2022-11-29T09:53:44.969Z,95434.59
2022-11-29T09:56:25.787Z,95430.63
2022-11-29T09:59:04.787Z,95441.88
2022-11-29T10:01:40.926Z,95438.16
2022-11-29T10:04:17.643Z,95440.59
2022-11-29T10:06:58.009Z,95439.31
2022-11-29T10:09:38.369Z,95437.94
2022-11-29T10:12:18.528Z,95437.13
2022-11-29T10:14:55.049Z,95433.41
2022-11-29T10:17:38.257Z,95435.25
2022-11-29T10:20:17.580Z,95435.25
2022-11-29T10:22:53.628Z,95433.63
2022-11-29T10:25:30.869Z,95434.69
2022-11-29T10:28:00.944Z,95427.50
2022-11-29T10:30:33.107Z,95430.50
2022-11-29T10:33:03.125Z,95430.59
2022-11-29T10:35:35.079Z,95422.06
2022-11-29T10:38:29.605Z,95431.22
2022-11-29T10:41:06.081Z,95420.06
2022-11-29T10:43:37.255Z,95419.81
2022-11-29T10:46:15.233Z,95420.41
2022-11-29T10:48:45.499Z,95416.69
2022-11-29T10:51:19.074Z,95419.69
2022-11-29T10:53:49.295Z,95415.38
2022-11-29T10:56:29.244Z,95417.81
2022-11-29T10:59:03.350Z,95421.28
2022-11-29T11:01:37.235Z,95416.28
2022-11-29T11:04:10.793Z,95421.06
2022-11-29T11:06:49.764Z,95418.97
2022-11-29T11:09:23.868Z,95418.72
2022-11-29T11:11:59.027Z,95421.16
2022-11-29T11:14:31.866Z,95426.81
2022-11-29T11:17:23.521Z,95423.34
2022-11-29T11:20:00.763Z,95427.34
2022-11-29T11:22:32.833Z,95422.00
2022-11-29T11:25:07.158Z,95426.06
2022-11-29T11:27:40.344Z,95431.16
2022-11-29T11:30:22.648Z,95429.06
2022-11-29T11:33:19.324Z,95432.06
2022-11-29T11:36:06.857Z,95429.16
2022-11-29T11:38:38.821Z,95427.53
2022-11-29T11:41:21.358Z,95434.47
2022-11-29T11:43:57.843Z,95435.78
2022-11-29T11:46:49.092Z,95437.88
2022-11-29T11:49:31.662Z,95433.59
2022-11-29T11:52:02.393Z,95437.31
2022-11-29T11:54:33.009Z,95438.34
2022-11-29T11:57:02.473Z,95431.41
2022-11-29T11:59:33.438Z,95441.28
2022-11-29T12:02:02.908Z,95434.06
2022-11-29T12:04:37.919Z,95433.25
2022-11-29T12:07:29.721Z,95444.75
2022-11-29T12:10:21.009Z,95443.47
2022-11-29T12:12:52.107Z,95445.88
2022-11-29T12:15:29.686Z,95441.34
2022-11-29T12:18:07.267Z,95442.41
2022-11-29T12:20:45.613Z,95439.97
2022-11-29T12:23:36.191Z,95435.22
2022-11-29T12:26:34.472Z,95448.31
2022-11-29T12:29:04.863Z,95444.84
2022-11-29T12:31:56.101Z,95454.94
2022-11-29T12:34:51.712Z,95449.03
2022-11-29T12:37:30.318Z,95447.66
2022-11-29T12:40:15.551Z,95459.72
2022-11-29T12:42:56.097Z,95439.97
2022-11-29T12:45:42.932Z,95451.00
2022-11-29T12:48:31.701Z,95456.91
2022-11-29T12:51:11.450Z,95451.31
2022-11-29T12:54:11.558Z,95457.25
2022-11-29T12:56:50.529Z,95454.91
2022-11-29T12:59:36.501Z,95457.09
2022-11-29T13:02:29.774Z,95456.06
2022-11-29T13:05:14.189Z,95460.09
2022-11-29T13:08:21.382Z,95455.56
2022-11-29T13:11:06.985Z,95461.47
2022-11-29T13:13:42.681Z,95462.25
2022-11-29T13:16:36.436Z,95461.22
2022-11-29T13:19:11.530Z,95461.72
2022-11-29T13:21:57.646Z,95468.13
2022-11-29T13:24:38.352Z,95473.47
2022-11-29T13:27:20.097Z,95467.31
2022-11-29T13:29:50.168Z,95474.50
2022-11-29T13:32:36.334Z,95462.69
2022-11-29T13:35:21.530Z,95467.94
2022-11-29T13:37:59.098Z,95472.69
2022-11-29T13:40:39.258Z,95475.28
2022-11-29T13:43:21.754Z,95474.47
2022-11-29T13:46:01.278Z,95477.13
2022-11-29T13:48:47.857Z,95473.88
2022-11-29T13:51:34.579Z,95480.63
2022-11-29T13:54:26.613Z,95482.22
2022-11-29T13:57:06.685Z,95483.28
2022-11-29T13:59:47.117Z,95490.16
2022-11-29T14:02:30.490Z,95486.66
2022-11-29T14:05:30.292Z,95489.56
2022-11-29T14:08:26.514Z,95492.19
2022-11-29T14:11:03.312Z,95497.28
2022-11-29T14:13:49.767Z,95492.19
2022-11-29T14:16:29.239Z,95496.38
2022-11-29T14:19:31.613Z,95497.34
2022-11-29T14:22:23.380Z,95496.75
2022-11-29T14:25:50.534Z,95496.19
2022-11-29T14:28:33.737Z,95498.53
2022-11-29T14:31:05.112Z,95493.44
2022-11-29T14:34:01.550Z,95501.91
2022-11-29T14:36:51.875Z,95494.88
2022-11-29T14:39:43.997Z,95504.16
2022-11-29T14:42:18.657Z,95508.59
